createdAt,value
2018-01-14T00:00:14.390Z,71.66
2018-01-14T00:01:45.341Z,71.23
2018-01-14T00:03:12.428Z,72.02
2018-01-14T00:04:39.672Z,71.45
2018-01-14T00:06:06.770Z,71.15
2018-01-14T00:07:33.767Z,71.13
2018-01-14T00:09:00.570Z,71.10
2018-01-14T00:10:23.618Z,71.07
2018-01-14T00:11:50.679Z,71.43
2018-01-14T00:13:21.807Z,71.27
2018-01-14T00:14:48.888Z,71.79
2018-01-14T00:16:15.866Z,71.57
2018-01-14T00:17:42.918Z,71.03
2018-01-14T00:19:06.045Z,70.68
2018-01-14T00:20:37.148Z,70.86
2018-01-14T00:22:00.206Z,71.03
2018-01-14T00:23:27.297Z,71.30
2018-01-14T00:24:58.297Z,71.82
2018-01-14T00:26:25.160Z,72.03
2018-01-14T00:27:48.040Z,72.03
2018-01-14T00:29:19.180Z,71.66
2018-01-14T00:30:42.380Z,71.78
2018-01-14T00:32:13.446Z,71.68
2018-01-14T00:33:40.453Z,71.04
2018-01-14T00:35:03.485Z,71.34
2018-01-14T00:36:30.387Z,71.61
2018-01-14T00:37:57.436Z,70.88
2018-01-14T00:39:28.476Z,70.62
2018-01-14T00:40:55.363Z,70.48
2018-01-14T00:42:23.318Z,71.02
2018-01-14T00:43:45.318Z,71.11
2018-01-14T00:45:16.487Z,70.92
2018-01-14T00:46:43.560Z,70.76
2018-01-14T00:48:10.565Z,71.09
2018-01-14T00:49:33.613Z,71.25
2018-01-14T00:51:04.703Z,71.04
2018-01-14T00:52:27.729Z,71.17
2018-01-14T00:53:58.682Z,71.52
2018-01-14T00:55:21.878Z,71.17
2018-01-14T00:56:49.076Z,71.24
2018-01-14T00:58:16.104Z,71.98
2018-01-14T00:59:47.314Z,72.16
2018-01-14T01:01:14.363Z,72.61
2018-01-14T01:02:41.502Z,72.23
2018-01-14T01:04:04.561Z,72.45
2018-01-14T01:05:31.742Z,72.53
2018-01-14T01:07:02.885Z,72.10
2018-01-14T01:08:29.995Z,72.17
2018-01-14T01:09:56.628Z,71.82
2018-01-14T01:11:23.818Z,71.63
2018-01-14T01:12:50.978Z,71.87
2018-01-14T01:14:18.030Z,71.70
2018-01-14T01:15:45.116Z,71.25
2018-01-14T01:17:08.323Z,70.74
2018-01-14T01:18:39.378Z,70.78
2018-01-14T01:20:02.104Z,70.55
2018-01-14T01:21:29.263Z,70.35
2018-01-14T01:23:00.373Z,70.87
2018-01-14T01:24:23.490Z,71.54
2018-01-14T01:25:50.371Z,71.67
2018-01-14T01:27:17.495Z,71.20
2018-01-14T01:28:48.394Z,71.07
2018-01-14T01:30:15.358Z,71.16
2018-01-14T01:31:42.486Z,71.38
2018-01-14T01:33:05.768Z,70.68
2018-01-14T01:34:36.896Z,70.85
2018-01-14T01:36:03.931Z,70.48
2018-01-14T01:37:27.191Z,69.56
2018-01-14T01:38:58.184Z,68.98
2018-01-14T01:40:24.965Z,69.76
2018-01-14T01:41:52.157Z,70.26
2018-01-14T01:43:19.203Z,70.51
2018-01-14T01:44:42.330Z,71.11
2018-01-14T01:46:09.322Z,71.43
2018-01-14T01:47:36.461Z,71.30
2018-01-14T01:49:07.581Z,71.45
2018-01-14T01:50:34.594Z,71.04
2018-01-14T01:51:57.693Z,70.64
2018-01-14T01:53:28.705Z,70.39
2018-01-14T01:54:55.723Z,70.73
2018-01-14T01:56:18.853Z,70.33
2018-01-14T01:57:46.093Z,70.56
2018-01-14T01:59:17.055Z,70.15
2018-01-14T02:00:40.157Z,69.75
2018-01-14T02:02:07.210Z,69.92
2018-01-14T02:03:38.332Z,69.60
2018-01-14T02:05:05.498Z,70.19
2018-01-14T02:06:32.748Z,70.39
2018-01-14T02:07:59.731Z,70.29
2018-01-14T02:09:26.719Z,70.54
2018-01-14T02:10:49.804Z,70.35
2018-01-14T02:12:20.827Z,69.81
2018-01-14T02:13:47.520Z,69.69
2018-01-14T02:15:14.633Z,69.97
2018-01-14T02:16:41.745Z,69.58
2018-01-14T02:18:04.863Z,69.77
2018-01-14T02:19:35.943Z,69.87
2018-01-14T02:21:02.862Z,69.90
2018-01-14T02:22:25.967Z,70.11
2018-01-14T02:23:57.018Z,70.22
2018-01-14T02:25:24.039Z,69.71
2018-01-14T02:26:51.211Z,70.00
2018-01-14T02:28:18.466Z,69.47
2018-01-14T02:29:45.471Z,69.44
2018-01-14T02:31:12.447Z,70.24
2018-01-14T02:32:39.573Z,70.03
2018-01-14T02:34:06.685Z,69.62
2018-01-14T02:35:33.653Z,69.68
2018-01-14T02:37:00.493Z,70.08
2018-01-14T02:38:23.339Z,70.33
2018-01-14T02:39:54.444Z,69.44
2018-01-14T02:41:21.452Z,69.79
2018-01-14T02:42:44.481Z,69.71
2018-01-14T02:44:11.434Z,69.42
2018-01-14T02:45:38.635Z,69.47
2018-01-14T02:47:09.564Z,69.39
2018-01-14T02:48:36.653Z,69.92
2018-01-14T02:49:59.854Z,70.03
2018-01-14T02:51:30.897Z,69.88
2018-01-14T02:52:57.985Z,69.47
2018-01-14T02:54:24.607Z,69.92
2018-01-14T02:55:51.765Z,69.84
2018-01-14T02:57:18.873Z,69.84
2018-01-14T02:58:41.970Z,69.58
2018-01-14T03:00:13.028Z,69.94
2018-01-14T03:01:40.208Z,70.14
2018-01-14T03:03:07.234Z,70.22
2018-01-14T03:04:34.357Z,69.71
2018-01-14T03:05:57.391Z,69.59
2018-01-14T03:07:28.220Z,69.84
2018-01-14T03:08:55.206Z,69.93
2018-01-14T03:10:18.538Z,70.11
2018-01-14T03:11:49.584Z,70.22
2018-01-14T03:13:12.741Z,70.43
2018-01-14T03:14:43.829Z,69.90
2018-01-14T03:16:06.868Z,69.96
2018-01-14T03:17:38.012Z,70.16
2018-01-14T03:19:05.078Z,70.31
2018-01-14T03:20:28.213Z,70.61
2018-01-14T03:21:59.330Z,70.16
2018-01-14T03:23:26.371Z,70.26
2018-01-14T03:24:49.449Z,70.20
2018-01-14T03:26:20.522Z,70.67
2018-01-14T03:27:47.729Z,70.41
2018-01-14T03:29:14.833Z,70.44
2018-01-14T03:30:37.868Z,70.46
2018-01-14T03:32:05.045Z,70.53
2018-01-14T03:33:35.936Z,70.57
2018-01-14T03:35:02.977Z,70.74
2018-01-14T03:36:29.906Z,70.33
2018-01-14T03:37:53.096Z,69.56
2018-01-14T03:39:24.201Z,69.93
2018-01-14T03:40:51.181Z,69.44
2018-01-14T03:42:18.275Z,69.61
2018-01-14T03:43:41.269Z,69.97
2018-01-14T03:45:08.319Z,69.89
2018-01-14T03:46:39.434Z,70.26
2018-01-14T03:48:06.561Z,70.72
2018-01-14T03:49:29.741Z,70.28
2018-01-14T03:51:00.713Z,70.36
2018-01-14T03:52:27.729Z,70.82
2018-01-14T03:53:50.400Z,70.53
2018-01-14T03:55:21.521Z,70.83
2018-01-14T03:56:44.640Z,71.15
2018-01-14T03:58:11.534Z,71.12
2018-01-14T03:59:38.545Z,70.73
2018-01-14T04:01:05.529Z,70.95
2018-01-14T04:02:36.672Z,70.96
2018-01-14T04:03:59.723Z,71.38
2018-01-14T04:05:30.767Z,71.15
2018-01-14T04:06:57.876Z,71.27
2018-01-14T04:08:20.834Z,71.06
2018-01-14T04:09:47.627Z,70.91
2018-01-14T04:11:18.449Z,70.67
2018-01-14T04:12:45.580Z,70.76
2018-01-14T04:14:12.634Z,71.30
2018-01-14T04:15:39.847Z,71.42
2018-01-14T04:17:06.835Z,71.69
2018-01-14T04:18:29.895Z,71.70
2018-01-14T04:20:00.866Z,71.84
2018-01-14T04:21:24.007Z,71.50
2018-01-14T04:22:54.961Z,71.41
2018-01-14T04:24:22.115Z,71.74
2018-01-14T04:25:49.066Z,71.74
2018-01-14T04:27:16.251Z,71.84
2018-01-14T04:28:43.319Z,71.38
2018-01-14T04:30:10.316Z,71.84
2018-01-14T04:31:33.241Z,72.05
2018-01-14T04:33:00.231Z,72.39
2018-01-14T04:34:27.290Z,72.50
2018-01-14T04:35:54.094Z,72.07
2018-01-14T04:37:21.042Z,72.13
2018-01-14T04:38:48.101Z,71.89
2018-01-14T04:40:19.276Z,71.90
2018-01-14T04:41:46.275Z,72.40
2018-01-14T04:43:13.381Z,72.39
2018-01-14T04:44:40.378Z,72.57
2018-01-14T04:46:07.485Z,72.69
2018-01-14T04:47:30.445Z,72.53
2018-01-14T04:49:01.644Z,72.61
2018-01-14T04:50:24.767Z,72.82
2018-01-14T04:51:51.679Z,72.98
2018-01-14T04:53:22.896Z,73.09
2018-01-14T04:54:50.055Z,72.76
2018-01-14T04:56:13.068Z,72.49
2018-01-14T04:57:43.998Z,72.65
2018-01-14T04:59:07.142Z,72.74
2018-01-14T05:00:34.196Z,72.63
2018-01-14T05:02:01.406Z,72.58
2018-01-14T05:03:32.530Z,72.86
2018-01-14T05:04:59.467Z,72.94
2018-01-14T05:06:22.422Z,72.87
2018-01-14T05:07:53.670Z,73.25
2018-01-14T05:09:16.647Z,73.20
2018-01-14T05:10:47.783Z,73.25
2018-01-14T05:12:14.745Z,73.02
2018-01-14T05:13:37.859Z,73.20
2018-01-14T05:15:09.059Z,73.20
2018-01-14T05:16:36.223Z,73.48
2018-01-14T05:17:59.277Z,73.31
2018-01-14T05:19:30.119Z,73.37
2018-01-14T05:20:53.189Z,73.42
2018-01-14T05:22:24.302Z,73.70
2018-01-14T05:23:51.448Z,73.72
2018-01-14T05:25:18.571Z,74.13
2018-01-14T05:26:41.708Z,74.33
2018-01-14T05:28:12.623Z,74.47
2018-01-14T05:29:39.546Z,74.48
2018-01-14T05:31:02.582Z,74.02
2018-01-14T05:32:33.595Z,73.79
2018-01-14T05:34:00.606Z,73.91
2018-01-14T05:35:27.604Z,73.89
2018-01-14T05:36:54.366Z,73.85
2018-01-14T05:38:21.546Z,74.25
2018-01-14T05:39:48.611Z,74.07
2018-01-14T05:41:15.776Z,74.05
2018-01-14T05:42:42.692Z,74.10
2018-01-14T05:44:05.737Z,74.24
2018-01-14T05:45:32.985Z,74.25
2018-01-14T05:47:04.017Z,74.51
2018-01-14T05:48:30.909Z,74.76
2018-01-14T05:49:54.047Z,74.81
2018-01-14T05:51:20.974Z,75.16
2018-01-14T05:52:48.242Z,75.15
2018-01-14T05:54:19.136Z,75.45
2018-01-14T05:55:42.227Z,75.54
2018-01-14T05:57:13.378Z,75.64
2018-01-14T05:58:36.441Z,75.82
2018-01-14T06:00:07.530Z,75.89
2018-01-14T06:01:30.746Z,76.00
2018-01-14T06:02:57.946Z,76.17
2018-01-14T06:04:28.911Z,76.09
2018-01-14T06:05:51.756Z,76.28
2018-01-14T06:07:22.815Z,76.53
2018-01-14T06:08:49.944Z,76.44
2018-01-14T06:10:17.142Z,76.57
2018-01-14T06:11:40.315Z,76.72
2018-01-14T06:13:11.493Z,76.89
2018-01-14T06:14:38.508Z,77.08
2018-01-14T06:16:01.651Z,77.41
2018-01-14T06:17:32.800Z,77.47
2018-01-14T06:18:55.961Z,77.63
2018-01-14T06:20:22.837Z,77.89
2018-01-14T06:21:53.918Z,77.97
2018-01-14T06:23:16.965Z,78.31
2018-01-14T06:24:48.028Z,78.40
2018-01-14T06:26:15.046Z,78.42
2018-01-14T06:27:37.881Z,78.65
2018-01-14T06:29:08.959Z,78.61
2018-01-14T06:30:36.044Z,78.68
2018-01-14T06:32:03.218Z,78.99
2018-01-14T06:33:30.139Z,79.01
2018-01-14T06:34:52.987Z,79.04
2018-01-14T06:36:23.744Z,78.81
2018-01-14T06:37:50.649Z,78.70
2018-01-14T06:39:17.625Z,78.64
2018-01-14T06:40:44.732Z,79.00
2018-01-14T06:42:11.794Z,78.60
2018-01-14T06:43:38.803Z,78.52
2018-01-14T06:45:05.871Z,78.65
2018-01-14T06:46:28.858Z,78.72
2018-01-14T06:47:55.849Z,78.70
2018-01-14T06:49:26.943Z,78.48
2018-01-14T06:50:53.911Z,78.26
2018-01-14T06:52:20.936Z,78.50
2018-01-14T06:53:48.056Z,77.99
2018-01-14T06:55:15.012Z,77.90
2018-01-14T06:56:42.119Z,77.61
2018-01-14T06:58:05.252Z,78.07
2018-01-14T06:59:36.320Z,77.89
2018-01-14T07:01:03.277Z,77.86
2018-01-14T07:02:30.202Z,77.83
2018-01-14T07:03:53.078Z,77.76
2018-01-14T07:05:24.137Z,77.58
2018-01-14T07:06:47.203Z,77.38
2018-01-14T07:08:18.220Z,77.47
2018-01-14T07:09:41.118Z,77.52
2018-01-14T07:11:12.193Z,77.41
2018-01-14T07:12:39.269Z,77.23
2018-01-14T07:14:06.186Z,77.29
2018-01-14T07:15:29.308Z,77.15
2018-01-14T07:17:00.354Z,76.96
2018-01-14T07:18:23.012Z,77.05
2018-01-14T07:19:54.224Z,76.90
2018-01-14T07:21:21.253Z,76.93
2018-01-14T07:22:48.323Z,76.64
2018-01-14T07:24:15.146Z,76.63
2018-01-14T07:25:42.092Z,76.74
2018-01-14T07:27:05.240Z,76.86
2018-01-14T07:28:36.296Z,76.89
2018-01-14T07:29:59.062Z,76.92
2018-01-14T07:31:26.113Z,77.03
2018-01-14T07:32:52.962Z,77.22
2018-01-14T07:34:20.050Z,77.39
2018-01-14T07:35:51.154Z,77.28
2018-01-14T07:37:14.297Z,77.24
2018-01-14T07:38:41.310Z,77.31
2018-01-14T07:40:12.548Z,77.26
2018-01-14T07:41:39.768Z,77.20
2018-01-14T07:43:07.001Z,77.42
2018-01-14T07:44:34.042Z,77.67
2018-01-14T07:45:57.009Z,77.60
2018-01-14T07:47:28.188Z,77.69
2018-01-14T07:48:51.187Z,77.80
2018-01-14T07:50:22.250Z,77.57
2018-01-14T07:51:49.172Z,77.77
2018-01-14T07:53:16.253Z,77.86
2018-01-14T07:54:43.374Z,77.86
2018-01-14T07:56:10.410Z,77.71
2018-01-14T07:57:33.518Z,77.94
2018-01-14T07:59:00.435Z,78.14
2018-01-14T08:00:31.466Z,78.22
2018-01-14T08:01:54.510Z,78.04
2018-01-14T08:03:25.478Z,78.27
2018-01-14T08:04:52.541Z,78.39
2018-01-14T08:06:15.424Z,78.44
2018-01-14T08:07:46.432Z,78.50
2018-01-14T08:09:09.357Z,78.71
2018-01-14T08:10:36.190Z,78.62
2018-01-14T08:12:03.334Z,78.57
2018-01-14T08:13:34.224Z,78.47
2018-01-14T08:14:57.048Z,78.62
2018-01-14T08:16:27.952Z,78.49
2018-01-14T08:17:50.848Z,78.20
2018-01-14T08:19:21.839Z,78.06
2018-01-14T08:20:44.793Z,78.19
2018-01-14T08:22:11.954Z,78.00
2018-01-14T08:23:39.390Z,78.16
2018-01-14T08:25:10.320Z,77.99
2018-01-14T08:26:37.126Z,77.97
2018-01-14T08:28:00.147Z,77.73
2018-01-14T08:29:31.250Z,78.00
2018-01-14T08:30:54.394Z,77.79
2018-01-14T08:32:25.034Z,77.70
2018-01-14T08:33:48.285Z,78.04
2018-01-14T08:35:15.461Z,77.80
2018-01-14T08:36:47.509Z,78.06
2018-01-14T08:38:09.580Z,77.86
2018-01-14T08:39:40.536Z,77.79
2018-01-14T08:41:07.770Z,78.13
2018-01-14T08:42:30.931Z,77.83
2018-01-14T08:44:02.051Z,77.84
2018-01-14T08:45:28.974Z,77.80
2018-01-14T08:46:56.085Z,77.91
2018-01-14T08:48:22.936Z,78.05
2018-01-14T08:49:49.775Z,77.59
2018-01-14T08:51:16.991Z,77.58
2018-01-14T08:52:40.336Z,77.40
2018-01-14T08:54:07.446Z,77.66
2018-01-14T08:55:34.473Z,77.81
2018-01-14T08:57:05.308Z,77.83
2018-01-14T08:58:32.318Z,78.00
2018-01-14T08:59:59.318Z,77.99
2018-01-14T09:01:26.240Z,78.08
2018-01-14T09:02:53.364Z,77.36
2018-01-14T09:04:16.666Z,77.42
2018-01-14T09:05:47.744Z,77.65
2018-01-14T09:07:14.695Z,77.23
2018-01-14T09:08:41.734Z,77.14
2018-01-14T09:10:08.912Z,77.39
2018-01-14T09:11:35.981Z,77.35
2018-01-14T09:12:58.963Z,77.19
2018-01-14T09:14:30.024Z,77.06
2018-01-14T09:15:57.080Z,76.79
2018-01-14T09:17:20.068Z,77.13
2018-01-14T09:18:51.098Z,77.37
2018-01-14T09:20:18.178Z,77.28
2018-01-14T09:21:44.923Z,77.17
2018-01-14T09:23:11.681Z,76.53
2018-01-14T09:24:38.689Z,76.70
2018-01-14T09:26:01.566Z,76.58
2018-01-14T09:27:28.535Z,76.98
2018-01-14T09:28:59.585Z,76.00
2018-01-14T09:30:26.676Z,76.31
2018-01-14T09:31:53.708Z,76.33
2018-01-14T09:33:20.659Z,76.27
2018-01-14T09:34:47.805Z,76.25
2018-01-14T09:36:10.956Z,76.54
2018-01-14T09:37:37.999Z,76.52
2018-01-14T09:39:05.019Z,76.12
2018-01-14T09:40:36.128Z,76.25
2018-01-14T09:41:59.096Z,76.51
2018-01-14T09:43:30.114Z,76.30
2018-01-14T09:44:53.052Z,76.63
2018-01-14T09:46:23.943Z,76.66
2018-01-14T09:47:50.879Z,76.66
2018-01-14T09:49:14.125Z,76.20
2018-01-14T09:50:45.060Z,75.87
2018-01-14T09:52:12.241Z,76.26
2018-01-14T09:53:39.360Z,76.57
2018-01-14T09:55:06.470Z,76.49
2018-01-14T09:56:29.806Z,76.05
2018-01-14T09:57:56.789Z,76.03
2018-01-14T09:59:24.006Z,75.77
2018-01-14T10:00:50.924Z,75.57
2018-01-14T10:02:22.014Z,75.70
2018-01-14T10:03:49.074Z,75.44
2018-01-14T10:05:16.101Z,75.89
2018-01-14T10:06:43.149Z,75.61
2018-01-14T10:08:10.294Z,75.81
2018-01-14T10:09:33.337Z,75.47
2018-01-14T10:11:04.405Z,75.46
2018-01-14T10:12:31.394Z,75.92
2018-01-14T10:13:58.330Z,75.74
2018-01-14T10:15:25.348Z,75.65
2018-01-14T10:16:52.490Z,75.56
2018-01-14T10:18:19.546Z,75.61
2018-01-14T10:19:42.628Z,74.96
2018-01-14T10:21:13.803Z,74.64
2018-01-14T10:22:40.971Z,74.77
2018-01-14T10:24:04.089Z,74.76
2018-01-14T10:25:35.232Z,75.03
2018-01-14T10:27:02.280Z,74.99
2018-01-14T10:28:25.436Z,74.95
2018-01-14T10:29:56.604Z,74.73
2018-01-14T10:31:23.596Z,74.71
2018-01-14T10:32:50.763Z,74.53
2018-01-14T10:34:17.831Z,75.02
2018-01-14T10:35:45.063Z,74.65
2018-01-14T10:37:12.239Z,74.41
2018-01-14T10:38:35.250Z,73.96
2018-01-14T10:40:02.197Z,74.16
2018-01-14T10:41:29.073Z,74.52
2018-01-14T10:42:56.166Z,74.47
2018-01-14T10:44:27.032Z,74.23
2018-01-14T10:45:50.113Z,74.02
2018-01-14T10:47:17.102Z,74.10
2018-01-14T10:48:48.250Z,73.58
2018-01-14T10:50:15.388Z,73.79
2018-01-14T10:51:38.496Z,73.93
2018-01-14T10:53:05.649Z,74.10
2018-01-14T10:54:32.679Z,73.83
2018-01-14T10:56:03.867Z,73.92
2018-01-14T10:57:30.836Z,74.08
2018-01-14T10:58:57.940Z,74.13
2018-01-14T11:00:24.857Z,73.55
2018-01-14T11:01:47.958Z,73.76
2018-01-14T11:03:19.082Z,73.75
2018-01-14T11:04:46.265Z,73.82
2018-01-14T11:06:13.365Z,73.65
2018-01-14T11:07:40.477Z,73.27
2018-01-14T11:09:04.699Z,73.94
2018-01-14T11:10:34.438Z,73.85
2018-01-14T11:11:57.618Z,73.77
2018-01-14T11:13:28.530Z,73.58
2018-01-14T11:14:51.588Z,73.56
2018-01-14T11:16:18.670Z,73.53
2018-01-14T11:17:45.461Z,73.30
2018-01-14T11:19:16.241Z,73.32
2018-01-14T11:20:39.384Z,73.56
2018-01-14T11:22:10.406Z,73.46
2018-01-14T11:23:37.628Z,73.78
2018-01-14T11:25:04.723Z,73.88
2018-01-14T11:26:31.803Z,73.87
2018-01-14T11:27:58.867Z,73.69
2018-01-14T11:29:25.962Z,73.71
2018-01-14T11:30:49.104Z,73.56
2018-01-14T11:32:16.172Z,73.72
2018-01-14T11:33:47.063Z,73.38
2018-01-14T11:35:10.134Z,73.57
2018-01-14T11:36:37.115Z,73.83
2018-01-14T11:38:04.337Z,73.68
2018-01-14T11:39:35.341Z,73.90
2018-01-14T11:40:58.352Z,74.20
2018-01-14T11:42:29.490Z,73.82
2018-01-14T11:43:56.600Z,74.11
2018-01-14T11:45:23.831Z,73.13
2018-01-14T11:46:50.929Z,72.80
2018-01-14T11:48:17.964Z,72.64
2018-01-14T11:49:45.047Z,72.76
2018-01-14T11:51:12.135Z,72.68
2018-01-14T11:52:35.193Z,73.06
2018-01-14T11:54:06.151Z,73.34
2018-01-14T11:55:29.179Z,73.27
2018-01-14T11:57:00.230Z,73.47
2018-01-14T11:58:27.183Z,73.83
2018-01-14T11:59:50.415Z,73.90
2018-01-14T12:01:21.317Z,73.45
2018-01-14T12:02:44.462Z,73.70
2018-01-14T12:04:15.470Z,73.98
2018-01-14T12:05:38.724Z,73.51
2018-01-14T12:07:09.624Z,73.03
2018-01-14T12:08:32.761Z,73.18
2018-01-14T12:09:59.697Z,73.80
2018-01-14T12:11:26.915Z,73.39
2018-01-14T12:12:57.975Z,73.36
2018-01-14T12:14:24.913Z,73.37
2018-01-14T12:15:51.888Z,73.75
2018-01-14T12:17:18.934Z,73.78
2018-01-14T12:18:45.917Z,73.73
2018-01-14T12:20:12.962Z,73.40
2018-01-14T12:21:36.081Z,73.51
2018-01-14T12:23:03.131Z,73.35
2018-01-14T12:24:34.009Z,73.92
2018-01-14T12:25:57.132Z,73.49
2018-01-14T12:27:28.168Z,73.86
2018-01-14T12:28:51.073Z,73.53
2018-01-14T12:30:22.133Z,73.68
2018-01-14T12:31:45.201Z,73.96
2018-01-14T12:33:12.249Z,73.63
2018-01-14T12:34:43.180Z,73.48
2018-01-14T12:36:06.359Z,73.42
2018-01-14T12:37:33.287Z,73.17
2018-01-14T12:39:00.269Z,73.50
2018-01-14T12:40:31.203Z,73.63
2018-01-14T12:41:54.261Z,74.37
2018-01-14T12:43:25.215Z,74.38
2018-01-14T12:44:52.369Z,74.70
2018-01-14T12:46:15.405Z,74.46
2018-01-14T12:47:46.345Z,74.17
2018-01-14T12:49:13.365Z,73.71
2018-01-14T12:50:40.353Z,73.46
2018-01-14T12:52:03.552Z,73.90
2018-01-14T12:53:34.668Z,74.40
2018-01-14T12:54:57.757Z,74.43
2018-01-14T12:56:28.630Z,74.02
2018-01-14T12:57:55.725Z,74.14
2018-01-14T12:59:22.868Z,73.80
2018-01-14T13:00:49.920Z,73.94
2018-01-14T13:02:13.166Z,74.11
2018-01-14T13:03:44.138Z,74.19
2018-01-14T13:05:11.300Z,74.19
2018-01-14T13:06:38.143Z,74.00
2018-01-14T13:08:05.243Z,73.98
2018-01-14T13:09:32.351Z,73.94
2018-01-14T13:10:59.371Z,74.06
2018-01-14T13:12:22.307Z,74.18
2018-01-14T13:13:53.316Z,73.94
2018-01-14T13:15:20.409Z,74.12
2018-01-14T13:16:47.444Z,74.02
2018-01-14T13:18:14.239Z,74.02
2018-01-14T13:19:37.417Z,74.11
2018-01-14T13:21:04.443Z,73.98
2018-01-14T13:22:35.477Z,74.29
2018-01-14T13:24:02.510Z,74.55
2018-01-14T13:25:29.502Z,74.19
2018-01-14T13:26:52.575Z,74.72
2018-01-14T13:28:23.575Z,74.25
2018-01-14T13:29:50.565Z,74.48
2018-01-14T13:31:13.786Z,74.55
2018-01-14T13:32:44.908Z,74.93
2018-01-14T13:34:11.848Z,74.56
2018-01-14T13:35:38.807Z,74.42
2018-01-14T13:37:05.542Z,74.19
2018-01-14T13:38:32.616Z,74.13
2018-01-14T13:39:55.638Z,74.36
2018-01-14T13:41:26.610Z,74.30
2018-01-14T13:42:49.572Z,74.48
2018-01-14T13:44:20.418Z,74.44
2018-01-14T13:45:43.492Z,74.36
2018-01-14T13:47:14.356Z,73.71
2018-01-14T13:48:41.329Z,73.13
2018-01-14T13:50:04.438Z,72.58
2018-01-14T13:51:31.713Z,72.50
2018-01-14T13:53:02.544Z,72.28
2018-01-14T13:54:29.454Z,72.50
2018-01-14T13:55:56.452Z,72.83
2018-01-14T13:57:23.604Z,72.83
2018-01-14T13:58:46.828Z,72.89
2018-01-14T14:00:17.998Z,72.77
2018-01-14T14:01:45.010Z,73.03
2018-01-14T14:03:08.044Z,72.90
2018-01-14T14:04:39.215Z,72.05
2018-01-14T14:06:06.106Z,72.41
2018-01-14T14:07:33.215Z,72.60
2018-01-14T14:09:00.014Z,72.56
2018-01-14T14:10:27.128Z,72.46
2018-01-14T14:11:53.990Z,72.95
2018-01-14T14:13:20.847Z,73.20
2018-01-14T14:14:47.943Z,72.81
2018-01-14T14:16:11.164Z,72.99
2018-01-14T14:17:42.109Z,73.40
2018-01-14T14:19:09.277Z,73.72
2018-01-14T14:20:36.458Z,73.57
2018-01-14T14:22:03.515Z,73.95
2018-01-14T14:23:26.520Z,73.78
2018-01-14T14:24:53.612Z,73.50
2018-01-14T14:26:24.403Z,73.94
2018-01-14T14:27:51.601Z,73.79
2018-01-14T14:29:18.563Z,73.53
2018-01-14T14:30:41.665Z,73.37
2018-01-14T14:32:12.777Z,73.36
2018-01-14T14:33:35.975Z,73.59
2018-01-14T14:35:06.888Z,73.34
2018-01-14T14:36:33.613Z,73.68
2018-01-14T14:37:56.860Z,73.86
2018-01-14T14:39:23.901Z,74.13
2018-01-14T14:40:54.593Z,74.41
2018-01-14T14:42:21.767Z,74.44
2018-01-14T14:43:48.721Z,74.62
2018-01-14T14:45:15.623Z,74.54
2018-01-14T14:46:42.768Z,74.32
2018-01-14T14:48:09.569Z,74.53
2018-01-14T14:49:36.470Z,74.73
2018-01-14T14:51:03.697Z,74.44
2018-01-14T14:52:26.890Z,74.42
2018-01-14T14:53:57.791Z,74.18
2018-01-14T14:55:24.715Z,73.96
2018-01-14T14:56:47.667Z,74.16
2018-01-14T14:58:18.727Z,74.16
2018-01-14T14:59:46.775Z,74.19
2018-01-14T15:01:12.916Z,74.62
2018-01-14T15:02:36.007Z,75.03
2018-01-14T15:04:07.148Z,74.91
2018-01-14T15:05:34.149Z,74.84
2018-01-14T15:06:57.256Z,74.39
2018-01-14T15:08:28.373Z,74.36
2018-01-14T15:09:55.446Z,74.01
2018-01-14T15:11:18.553Z,74.06
2018-01-14T15:12:45.768Z,74.23
2018-01-14T15:14:16.758Z,74.01
2018-01-14T15:15:43.921Z,74.56
2018-01-14T15:17:11.100Z,74.64
2018-01-14T15:18:38.307Z,74.78
2018-01-14T15:20:05.308Z,74.51
2018-01-14T15:21:32.295Z,74.33
2018-01-14T15:22:59.277Z,74.54
2018-01-14T15:24:25.900Z,74.21
2018-01-14T15:25:49.090Z,74.26
2018-01-14T15:27:16.039Z,74.56
2018-01-14T15:28:46.890Z,74.58
2018-01-14T15:30:13.991Z,74.71
2018-01-14T15:31:40.950Z,74.96
2018-01-14T15:33:07.865Z,74.37
2018-01-14T15:34:34.866Z,73.92
2018-01-14T15:36:01.919Z,74.27
2018-01-14T15:37:28.936Z,74.39
2018-01-14T15:38:55.800Z,74.70
2018-01-14T15:40:18.779Z,74.34
2018-01-14T15:41:49.996Z,74.20
2018-01-14T15:43:17.135Z,74.07
2018-01-14T15:44:40.290Z,74.28
2018-01-14T15:46:11.349Z,74.06
2018-01-14T15:47:34.690Z,74.51
2018-01-14T15:49:01.681Z,74.33
2018-01-14T15:50:32.732Z,74.71
2018-01-14T15:51:59.596Z,74.84
2018-01-14T15:53:26.672Z,74.78
2018-01-14T15:54:53.609Z,74.51
2018-01-14T15:56:16.728Z,74.54
2018-01-14T15:57:47.694Z,74.47
2018-01-14T15:59:14.684Z,74.54
2018-01-14T16:00:41.563Z,74.50
2018-01-14T16:02:08.801Z,74.11
2018-01-14T16:03:35.880Z,74.52
2018-01-14T16:05:02.674Z,74.01
2018-01-14T16:06:25.765Z,74.12
2018-01-14T16:07:56.539Z,73.95
2018-01-14T16:09:23.673Z,74.45
2018-01-14T16:10:46.755Z,74.64
2018-01-14T16:12:14.058Z,74.63
2018-01-14T16:13:44.920Z,74.67
2018-01-14T16:15:11.396Z,74.95
2018-01-14T16:16:34.312Z,75.22
2018-01-14T16:18:05.507Z,75.11
2018-01-14T16:19:32.592Z,75.10
2018-01-14T16:20:55.683Z,75.31
2018-01-14T16:22:26.550Z,75.09
2018-01-14T16:23:53.607Z,75.19
2018-01-14T16:25:16.535Z,74.97
2018-01-14T16:26:47.469Z,75.05
2018-01-14T16:28:14.429Z,74.55
2018-01-14T16:29:41.663Z,74.96
2018-01-14T16:31:08.851Z,74.79
2018-01-14T16:32:31.738Z,74.55
2018-01-14T16:34:02.811Z,74.74
2018-01-14T16:35:29.752Z,74.87
2018-01-14T16:36:56.528Z,75.05
2018-01-14T16:38:23.300Z,75.05
2018-01-14T16:39:46.426Z,75.32
2018-01-14T16:41:13.691Z,75.36
2018-01-14T16:42:44.708Z,75.43
2018-01-14T16:44:07.819Z,75.31
2018-01-14T16:45:38.931Z,75.34
2018-01-14T16:47:06.114Z,75.67
2018-01-14T16:48:33.029Z,75.85
2018-01-14T16:50:00.078Z,76.00
2018-01-14T16:51:22.822Z,76.12
2018-01-14T16:52:49.967Z,76.33
2018-01-14T16:54:20.759Z,76.20
2018-01-14T16:55:47.742Z,76.36
2018-01-14T16:57:14.817Z,76.46
2018-01-14T16:58:37.854Z,76.56
2018-01-14T17:00:04.899Z,76.75
2018-01-14T17:01:31.850Z,76.63
2018-01-14T17:03:02.834Z,76.63
2018-01-14T17:04:29.631Z,76.84
2018-01-14T17:05:52.110Z,76.92
2018-01-14T17:07:23.255Z,76.79
2018-01-14T17:08:49.988Z,76.71
2018-01-14T17:10:13.111Z,76.73
2018-01-14T17:11:44.025Z,76.81
2018-01-14T17:13:07.090Z,76.90
2018-01-14T17:14:37.770Z,76.39
2018-01-14T17:16:04.964Z,76.27
2018-01-14T17:17:31.936Z,76.33
2018-01-14T17:18:54.966Z,75.95
2018-01-14T17:20:25.737Z,76.14
2018-01-14T17:21:52.913Z,76.23
2018-01-14T17:23:19.819Z,76.44
2018-01-14T17:24:46.833Z,76.69
2018-01-14T17:26:09.995Z,76.94
2018-01-14T17:27:40.892Z,76.71
2018-01-14T17:29:07.987Z,76.91
2018-01-14T17:30:35.210Z,76.91
2018-01-14T17:32:02.294Z,76.85
2018-01-14T17:33:29.265Z,76.86
2018-01-14T17:34:56.291Z,76.69
2018-01-14T17:36:19.390Z,76.84
2018-01-14T17:37:50.405Z,77.11
2018-01-14T17:39:17.279Z,77.07
2018-01-14T17:40:44.175Z,77.15
2018-01-14T17:42:11.225Z,77.48
2018-01-14T17:43:34.510Z,77.55
2018-01-14T17:45:01.626Z,77.71
2018-01-14T17:46:32.542Z,77.74
2018-01-14T17:47:59.609Z,77.89
2018-01-14T17:49:22.449Z,77.85
2018-01-14T17:50:53.524Z,77.90
2018-01-14T17:52:20.487Z,77.99
2018-01-14T17:53:43.158Z,78.09
2018-01-14T17:55:13.973Z,78.12
2018-01-14T17:56:37.009Z,78.17
2018-01-14T17:58:07.867Z,78.38
2018-01-14T17:59:34.703Z,78.53
2018-01-14T18:01:01.697Z,78.47
2018-01-14T18:02:28.846Z,78.58
2018-01-14T18:03:55.692Z,78.66
2018-01-14T18:05:18.551Z,78.75
2018-01-14T18:06:49.471Z,78.80
2018-01-14T18:08:16.524Z,78.74
2018-01-14T18:09:39.517Z,78.65
2018-01-14T18:11:06.647Z,78.55
2018-01-14T18:12:33.749Z,78.55
2018-01-14T18:14:04.650Z,78.77
2018-01-14T18:15:27.733Z,78.69
2018-01-14T18:16:58.634Z,78.68
2018-01-14T18:18:25.260Z,78.80
2018-01-14T18:19:52.365Z,78.50
2018-01-14T18:21:15.530Z,78.31
2018-01-14T18:22:46.210Z,78.47
2018-01-14T18:24:13.036Z,78.43
2018-01-14T18:25:40.014Z,78.63
2018-01-14T18:27:06.777Z,78.70
2018-01-14T18:28:33.716Z,78.89
2018-01-14T18:30:00.636Z,79.08
2018-01-14T18:31:27.476Z,78.95
2018-01-14T18:32:50.834Z,78.89
2018-01-14T18:34:17.840Z,78.88
2018-01-14T18:35:44.972Z,78.53
2018-01-14T18:37:15.804Z,78.53
2018-01-14T18:38:38.701Z,78.60
2018-01-14T18:40:09.685Z,78.55